createdAt,value
2022-11-04T00:01:52.339Z,11.10
2022-11-04T00:04:21.131Z,11.10
2022-11-04T00:06:48.326Z,11.10
2022-11-04T00:09:27.302Z,11.00
2022-11-04T00:12:12.561Z,11.00
2022-11-04T00:14:39.176Z,10.90
2022-11-04T00:17:24.427Z,10.90
2022-11-04T00:20:12.187Z,10.90
2022-11-04T00:23:00.451Z,10.90
2022-11-04T00:25:46.112Z,10.80
2022-11-04T00:28:34.469Z,10.70
2022-11-04T00:31:21.512Z,11.20
2022-11-04T00:33:49.348Z,10.60
2022-11-04T00:36:16.350Z,10.60
2022-11-04T00:38:43.345Z,10.60
2022-11-04T00:41:29.981Z,10.60
2022-11-04T00:43:59.881Z,10.50
2022-11-04T00:46:27.654Z,10.50
2022-11-04T00:48:54.661Z,10.50
2022-11-04T00:51:21.794Z,10.50
2022-11-04T00:53:48.853Z,10.50
2022-11-04T00:56:15.488Z,10.40
2022-11-04T00:58:42.284Z,10.50
2022-11-04T01:01:17.903Z,10.50
2022-11-04T01:03:46.463Z,10.40
2022-11-04T01:06:13.084Z,10.40
2022-11-04T01:08:40.352Z,10.40
2022-11-04T01:11:09.266Z,10.40
2022-11-04T01:13:36.227Z,10.40
2022-11-04T01:16:05.221Z,10.40
2022-11-04T01:18:32.425Z,10.30
2022-11-04T01:21:03.653Z,10.40
2022-11-04T01:23:30.529Z,10.30
2022-11-04T01:25:57.511Z,10.30
2022-11-04T01:28:24.108Z,10.30
2022-11-04T01:30:50.716Z,10.30
2022-11-04T01:33:17.466Z,10.20
2022-11-04T01:35:44.060Z,10.20
2022-11-04T01:38:11.241Z,10.20
2022-11-04T01:40:39.708Z,10.20
2022-11-04T01:43:21.012Z,10.20
2022-11-04T01:46:01.029Z,10.20
2022-11-04T01:48:32.073Z,10.20
2022-11-04T01:50:59.756Z,10.10
2022-11-04T01:53:31.402Z,10.20
2022-11-04T01:56:01.479Z,10.20
2022-11-04T01:58:35.325Z,10.20
2022-11-04T02:01:02.837Z,10.20
2022-11-04T02:03:36.379Z,10.60
2022-11-04T02:06:04.347Z,10.20
2022-11-04T02:08:31.064Z,10.20
2022-11-04T02:11:03.432Z,10.20
2022-11-04T02:13:35.602Z,10.20
2022-11-04T02:16:19.163Z,10.30
2022-11-04T02:19:06.503Z,10.30
2022-11-04T02:21:53.557Z,10.40
2022-11-04T02:24:39.377Z,10.40
2022-11-04T02:27:16.946Z,10.40
2022-11-04T02:29:52.711Z,10.30
2022-11-04T02:32:28.255Z,10.30
2022-11-04T02:35:10.092Z,10.40
2022-11-04T02:37:45.755Z,10.40
2022-11-04T02:40:33.315Z,10.40
2022-11-04T02:43:09.227Z,10.40
2022-11-04T02:45:49.112Z,10.40
2022-11-04T02:48:21.504Z,10.40
2022-11-04T02:50:56.000Z,10.40
2022-11-04T02:53:37.972Z,10.30
2022-11-04T02:56:06.787Z,10.30
2022-11-04T02:58:47.197Z,10.30
2022-11-04T03:01:16.720Z,10.30
2022-11-04T03:03:51.027Z,10.30
2022-11-04T03:06:21.701Z,10.30
2022-11-04T03:08:51.485Z,10.30
2022-11-04T03:11:22.714Z,10.20
2022-11-04T03:14:02.645Z,10.20
2022-11-04T03:16:44.178Z,10.20
2022-11-04T03:19:32.344Z,10.20
2022-11-04T03:22:04.311Z,10.20
2022-11-04T03:24:31.849Z,10.20
2022-11-04T03:27:02.893Z,10.20
2022-11-04T03:29:39.350Z,10.20
2022-11-04T03:32:56.903Z,10.20
2022-11-04T03:35:24.339Z,10.10
2022-11-04T03:37:51.184Z,10.10
2022-11-04T03:40:20.900Z,10.10
2022-11-04T03:43:01.482Z,10.00
2022-11-04T03:45:28.261Z,10.10
2022-11-04T03:47:56.646Z,10.00
2022-11-04T03:50:47.540Z,10.00
2022-11-04T03:53:21.672Z,10.00
2022-11-04T03:56:06.686Z,10.00
2022-11-04T03:58:45.467Z,10.00
2022-11-04T04:01:30.333Z,10.10
2022-11-04T04:04:08.408Z,10.00
2022-11-04T04:06:36.443Z,10.00
2022-11-04T04:09:26.378Z,10.00
2022-11-04T04:11:58.022Z,10.00
2022-11-04T04:14:42.067Z,9.90
2022-11-04T04:17:24.150Z,9.80
2022-11-04T04:19:57.279Z,9.80
2022-11-04T04:22:28.816Z,9.80
2022-11-04T04:25:16.737Z,9.80
2022-11-04T04:27:46.368Z,9.70
2022-11-04T04:30:14.955Z,9.60
2022-11-04T04:33:01.402Z,9.60
2022-11-04T04:35:43.592Z,9.60
2022-11-04T04:38:42.627Z,9.60
2022-11-04T04:41:41.446Z,9.50
2022-11-04T04:45:05.692Z,9.60
2022-11-04T04:47:40.308Z,9.50
2022-11-04T04:50:07.712Z,9.50
2022-11-04T04:52:38.983Z,9.50
2022-11-04T04:55:06.344Z,9.50
2022-11-04T04:57:33.133Z,9.50
2022-11-04T04:59:59.846Z,9.60
2022-11-04T05:02:26.646Z,9.60
2022-11-04T05:04:53.340Z,9.60
2022-11-04T05:07:19.924Z,9.50
2022-11-04T05:09:46.547Z,9.50
2022-11-04T05:12:13.238Z,9.50
2022-11-04T05:14:39.893Z,9.60
2022-11-04T05:17:06.499Z,9.60
2022-11-04T05:19:33.151Z,9.50
2022-11-04T05:21:59.988Z,9.50
2022-11-04T05:24:26.560Z,9.50
2022-11-04T05:26:53.289Z,9.50
2022-11-04T05:29:19.921Z,9.40
2022-11-04T05:31:46.588Z,9.40
2022-11-04T05:34:14.000Z,9.40
2022-11-04T05:36:41.218Z,9.30
2022-11-04T05:39:11.033Z,9.40
2022-11-04T05:41:37.649Z,9.30
2022-11-04T05:44:04.850Z,9.30
2022-11-04T05:46:31.536Z,9.30
2022-11-04T05:48:58.332Z,9.30
2022-11-04T05:51:27.110Z,9.20
2022-11-04T05:53:53.774Z,9.20
2022-11-04T05:56:20.451Z,9.20
2022-11-04T05:58:47.036Z,9.60
2022-11-04T06:01:24.710Z,9.00
2022-11-04T06:03:52.396Z,8.90
2022-11-04T06:06:19.850Z,8.90
2022-11-04T06:08:46.473Z,8.80
2022-11-04T06:11:13.463Z,8.90
2022-11-04T06:13:40.049Z,8.90
2022-11-04T06:16:07.271Z,8.80
2022-11-04T06:18:33.860Z,8.80
2022-11-04T06:21:13.315Z,8.70
2022-11-04T06:23:41.290Z,8.70
2022-11-04T06:26:09.660Z,8.70
2022-11-04T06:28:36.384Z,8.70
2022-11-04T06:31:05.824Z,8.70
2022-11-04T06:33:36.763Z,8.80
2022-11-04T06:36:07.512Z,8.80
2022-11-04T06:38:36.037Z,8.80
2022-11-04T06:41:02.835Z,8.90
2022-11-04T06:43:29.461Z,8.90
2022-11-04T06:45:57.427Z,8.80
2022-11-04T06:48:24.491Z,8.90
2022-11-04T06:50:51.186Z,8.80
2022-11-04T06:53:17.832Z,8.80
2022-11-04T06:55:44.540Z,8.80
2022-11-04T06:58:11.624Z,8.90
2022-11-04T07:00:38.222Z,8.80
2022-11-04T07:03:04.856Z,8.80
2022-11-04T07:05:34.108Z,8.80
2022-11-04T07:08:00.711Z,8.80
2022-11-04T07:10:27.532Z,8.80
2022-11-04T07:12:55.038Z,8.80
2022-11-04T07:15:26.311Z,8.80
2022-11-04T07:17:53.966Z,8.80
2022-11-04T07:20:20.556Z,8.80
2022-11-04T07:22:47.208Z,8.90
2022-11-04T07:25:14.358Z,9.00
2022-11-04T07:27:41.179Z,9.00
2022-11-04T07:30:08.549Z,9.00
2022-11-04T07:32:35.176Z,9.10
2022-11-04T07:35:01.822Z,9.20
2022-11-04T07:37:28.459Z,9.20
2022-11-04T07:39:55.060Z,9.40
2022-11-04T07:42:21.677Z,9.40
2022-11-04T07:44:48.332Z,9.20
2022-11-04T07:47:15.073Z,9.30
2022-11-04T07:49:41.698Z,9.60
2022-11-04T07:52:08.366Z,9.90
2022-11-04T07:54:34.998Z,9.90
2022-11-04T07:57:01.823Z,9.90
2022-11-04T07:59:28.395Z,10.20
2022-11-04T08:01:55.156Z,10.30
2022-11-04T08:04:21.957Z,10.20
2022-11-04T08:06:48.536Z,10.30
2022-11-04T08:09:15.210Z,10.20
2022-11-04T08:11:41.904Z,10.60
2022-11-04T08:14:09.840Z,10.80
2022-11-04T08:16:36.498Z,10.60
2022-11-04T08:19:03.329Z,10.60
2022-11-04T08:21:31.840Z,10.80
2022-11-04T08:23:58.487Z,10.50
2022-11-04T08:26:25.572Z,10.50
2022-11-04T08:28:52.900Z,10.50
2022-11-04T08:31:28.769Z,10.20
2022-11-04T08:33:56.848Z,10.10
2022-11-04T08:36:28.345Z,10.00
2022-11-04T08:38:55.819Z,10.10
2022-11-04T08:41:25.748Z,10.20
2022-11-04T08:43:52.903Z,10.10
2022-11-04T08:46:20.152Z,10.00
2022-11-04T08:48:46.787Z,10.10
2022-11-04T08:51:17.304Z,10.20
2022-11-04T08:53:44.107Z,10.40
2022-11-04T08:56:24.657Z,11.10
2022-11-04T08:58:51.467Z,11.00
2022-11-04T09:01:19.495Z,11.10
2022-11-04T09:03:46.537Z,11.10
2022-11-04T09:06:21.384Z,11.20
2022-11-04T09:08:48.581Z,11.20
2022-11-04T09:11:16.238Z,11.30
2022-11-04T09:13:44.126Z,11.40
2022-11-04T09:16:12.607Z,11.50
2022-11-04T09:18:39.303Z,11.50
2022-11-04T09:21:08.120Z,11.60
2022-11-04T09:23:35.088Z,11.80
2022-11-04T09:26:14.721Z,11.70
2022-11-04T09:28:41.737Z,11.50
2022-11-04T09:31:11.337Z,11.30
2022-11-04T09:33:38.756Z,11.80
2022-11-04T09:36:05.531Z,11.70
2022-11-04T09:38:32.459Z,11.70
2022-11-04T09:40:59.873Z,11.70
2022-11-04T09:43:45.172Z,11.70
2022-11-04T09:46:13.943Z,12.00
2022-11-04T09:48:47.100Z,12.20
2022-11-04T09:51:32.537Z,12.40
2022-11-04T09:54:22.561Z,12.70
2022-11-04T09:56:52.895Z,12.60
2022-11-04T09:59:27.034Z,12.30
2022-11-04T10:02:13.499Z,12.00
2022-11-04T10:05:05.572Z,11.80
2022-11-04T10:08:06.303Z,11.50
2022-11-04T10:10:47.010Z,11.30
2022-11-04T10:13:38.257Z,11.00
2022-11-04T10:16:13.588Z,10.90
2022-11-04T10:18:43.101Z,10.90
2022-11-04T10:21:47.102Z,11.20
2022-11-04T10:24:42.603Z,11.90
2022-11-04T10:27:16.020Z,12.00
2022-11-04T10:29:59.992Z,12.50
2022-11-04T10:32:46.090Z,13.10
2022-11-04T10:35:34.735Z,13.60
2022-11-04T10:38:22.520Z,12.80
2022-11-04T10:40:52.276Z,12.80
2022-11-04T10:43:31.235Z,12.60
2022-11-04T10:46:00.958Z,13.20
2022-11-04T10:48:43.398Z,13.20
2022-11-04T10:51:10.032Z,12.80
2022-11-04T10:53:37.618Z,12.50
2022-11-04T10:56:21.383Z,12.50
2022-11-04T10:58:48.628Z,12.60
2022-11-04T11:01:30.970Z,13.00
2022-11-04T11:03:58.567Z,13.10
2022-11-04T11:06:31.089Z,13.40
2022-11-04T11:09:13.513Z,13.60
2022-11-04T11:11:48.325Z,13.60
2022-11-04T11:14:33.997Z,13.30
2022-11-04T11:17:16.037Z,12.90
2022-11-04T11:20:08.121Z,12.60
2022-11-04T11:22:39.512Z,12.60
2022-11-04T11:25:27.448Z,12.70
2022-11-04T11:28:04.341Z,13.00
2022-11-04T11:30:49.088Z,13.20
2022-11-04T11:33:17.627Z,13.20
2022-11-04T11:35:53.476Z,13.30
2022-11-04T11:38:31.819Z,13.30
2022-11-04T11:41:24.456Z,13.60
2022-11-04T11:43:54.024Z,13.50
2022-11-04T11:46:32.647Z,13.60
2022-11-04T11:49:02.202Z,13.60
2022-11-04T11:51:37.232Z,13.70
2022-11-04T11:54:18.616Z,13.70
2022-11-04T11:57:12.539Z,13.50
2022-11-04T12:02:57.951Z,13.30
2022-11-04T12:12:02.531Z,13.40
2022-11-04T12:14:29.118Z,13.40
2022-11-04T12:17:09.638Z,13.30
2022-11-04T12:19:43.123Z,13.20
2022-11-04T12:22:16.076Z,13.10
2022-11-04T12:25:20.008Z,13.30
2022-11-04T12:28:17.638Z,13.20
2022-11-04T12:31:08.428Z,13.30
2022-11-04T12:33:38.115Z,13.20
2022-11-04T12:36:55.821Z,13.30
2022-11-04T12:39:39.479Z,13.40
2022-11-04T12:42:29.648Z,13.30
2022-11-04T12:45:24.914Z,13.50
2022-11-04T12:47:55.261Z,13.70
2022-11-04T12:50:33.630Z,13.80
2022-11-04T12:53:16.975Z,13.90
2022-11-04T12:55:46.296Z,14.10
2022-11-04T12:58:15.385Z,14.00
2022-11-04T13:00:45.129Z,14.00
2022-11-04T13:03:30.109Z,13.80
2022-11-04T13:06:10.390Z,13.70
2022-11-04T13:08:46.489Z,13.60
2022-11-04T13:11:24.974Z,13.90
2022-11-04T13:14:29.902Z,13.70
2022-11-04T13:17:01.196Z,13.40
2022-11-04T13:19:34.178Z,13.10
2022-11-04T13:22:07.150Z,12.90
2022-11-04T13:24:37.845Z,12.70
2022-11-04T13:27:18.225Z,12.60
2022-11-04T13:29:45.528Z,12.40
2022-11-04T13:32:32.007Z,12.30
2022-11-04T13:35:23.769Z,12.10
2022-11-04T13:37:59.387Z,12.10
2022-11-04T13:40:42.501Z,12.10
2022-11-04T13:43:39.641Z,11.90
2022-11-04T13:46:18.753Z,11.60
2022-11-04T13:49:02.292Z,11.40
2022-11-04T13:52:00.047Z,11.20
2022-11-04T13:54:33.490Z,11.20
2022-11-04T13:57:51.724Z,11.00
2022-11-04T14:00:24.060Z,11.00
2022-11-04T14:02:53.340Z,11.00
2022-11-04T14:05:32.196Z,11.10
2022-11-04T14:07:59.352Z,11.00
2022-11-04T14:10:42.392Z,11.10
2022-11-04T14:13:42.533Z,11.20
2022-11-04T14:16:24.091Z,11.20
2022-11-04T14:18:52.900Z,11.20
2022-11-04T14:21:21.889Z,11.10
2022-11-04T14:23:57.324Z,11.10
2022-11-04T14:26:28.970Z,10.90
2022-11-04T14:29:06.642Z,10.70
2022-11-04T14:31:43.612Z,10.80
2022-11-04T14:34:31.424Z,10.80
2022-11-04T14:37:04.071Z,10.80
2022-11-04T14:39:38.161Z,10.80
2022-11-04T14:42:06.697Z,10.80
2022-11-04T14:44:39.163Z,10.80
2022-11-04T14:47:15.124Z,10.80
2022-11-04T14:49:59.731Z,10.90
2022-11-04T14:52:27.679Z,10.80
2022-11-04T14:55:01.892Z,10.90
2022-11-04T14:57:30.188Z,10.80
2022-11-04T14:59:56.799Z,10.90
2022-11-04T15:02:25.834Z,10.80
2022-11-04T15:04:59.454Z,10.80
2022-11-04T15:07:36.754Z,10.70
2022-11-04T15:10:22.157Z,10.60
2022-11-04T15:12:52.082Z,10.60
2022-11-04T15:15:29.223Z,10.60
2022-11-04T15:18:20.144Z,10.60
2022-11-04T15:20:52.935Z,10.50
2022-11-04T15:23:35.560Z,10.40
2022-11-04T15:26:03.486Z,10.30
2022-11-04T15:28:38.632Z,10.30
2022-11-04T15:31:17.682Z,10.30
2022-11-04T15:33:48.578Z,10.30
2022-11-04T15:36:17.838Z,10.20
2022-11-04T15:39:10.832Z,10.20
2022-11-04T15:41:58.524Z,10.20
2022-11-04T15:44:29.383Z,10.10
2022-11-04T15:46:58.530Z,10.00
2022-11-04T15:49:27.888Z,10.00
2022-11-04T15:52:16.909Z,10.00
2022-11-04T15:54:47.016Z,10.00
2022-11-04T15:57:25.685Z,10.00
2022-11-04T16:00:17.573Z,9.90
2022-11-04T16:02:47.190Z,9.80
2022-11-04T16:05:17.138Z,9.80
2022-11-04T16:07:46.429Z,9.80
2022-11-04T16:10:36.225Z,9.80
2022-11-04T16:13:15.852Z,9.80
2022-11-04T16:16:09.064Z,9.80
2022-11-04T16:18:38.866Z,9.80
2022-11-04T16:21:21.721Z,9.80
2022-11-04T16:23:52.556Z,9.80
2022-11-04T16:26:37.554Z,9.80
2022-11-04T16:29:09.509Z,9.80
2022-11-04T16:31:37.571Z,9.80
2022-11-04T16:34:08.820Z,9.70
2022-11-04T16:36:36.162Z,9.70
2022-11-04T16:39:08.383Z,9.70
2022-11-04T16:41:38.236Z,9.60
2022-11-04T16:44:15.960Z,9.70
2022-11-04T16:46:42.731Z,9.80
2022-11-04T16:49:10.532Z,9.70
2022-11-04T16:51:37.115Z,9.70
2022-11-04T16:54:03.755Z,9.70
2022-11-04T16:56:30.400Z,9.70
2022-11-04T16:58:56.964Z,9.60
2022-11-04T17:01:23.660Z,9.50
2022-11-04T17:03:50.344Z,9.50
2022-11-04T17:06:18.038Z,9.50
2022-11-04T17:08:44.657Z,9.50
2022-11-04T17:11:12.357Z,9.40
2022-11-04T17:13:39.622Z,9.40
2022-11-04T17:16:07.526Z,9.40
2022-11-04T17:18:35.174Z,9.50
2022-11-04T17:21:06.834Z,9.40
2022-11-04T17:23:33.507Z,9.40
2022-11-04T17:26:00.416Z,9.40
2022-11-04T17:28:27.112Z,9.40
2022-11-04T17:30:53.784Z,9.30
2022-11-04T17:33:20.769Z,9.30
2022-11-04T17:35:49.629Z,9.40
2022-11-04T17:38:17.660Z,9.30
2022-11-04T17:41:03.079Z,9.40
2022-11-04T17:43:48.416Z,9.30
2022-11-04T17:46:34.230Z,9.30
2022-11-04T17:49:20.900Z,9.40
2022-11-04T17:51:55.984Z,9.40
2022-11-04T17:54:24.888Z,9.40
2022-11-04T17:56:51.494Z,9.30
2022-11-04T17:59:18.683Z,9.30
2022-11-04T18:01:46.169Z,9.20
2022-11-04T18:04:22.182Z,9.10
2022-11-04T18:06:50.226Z,9.10
2022-11-04T18:09:17.952Z,9.10
2022-11-04T18:12:04.287Z,9.10
2022-11-04T18:14:31.444Z,9.10
2022-11-04T18:16:58.701Z,9.10
2022-11-04T18:19:26.380Z,9.10
2022-11-04T18:21:53.158Z,9.10
2022-11-04T18:24:20.299Z,9.10
2022-11-04T18:26:47.263Z,9.10
2022-11-04T18:29:13.897Z,9.00
2022-11-04T18:31:46.185Z,8.90
2022-11-04T18:34:18.750Z,8.90
2022-11-04T18:36:46.759Z,8.90
2022-11-04T18:39:15.315Z,8.80
2022-11-04T18:41:42.284Z,8.70
2022-11-04T18:44:16.763Z,8.70
2022-11-04T18:46:43.837Z,8.70
2022-11-04T18:49:11.729Z,8.60
2022-11-04T18:51:39.016Z,8.90
2022-11-04T18:54:07.387Z,8.50
2022-11-04T18:56:34.288Z,8.50
2022-11-04T18:59:01.316Z,8.50
2022-11-04T19:01:33.102Z,8.50
2022-11-04T19:04:00.392Z,8.50
2022-11-04T19:06:33.060Z,8.40
2022-11-04T19:09:32.071Z,8.40
2022-11-04T19:12:12.861Z,8.30
2022-11-04T19:14:39.895Z,8.30
2022-11-04T19:17:06.476Z,8.30
2022-11-04T19:19:33.117Z,8.20
2022-11-04T19:21:59.703Z,8.10
2022-11-04T19:24:26.449Z,8.10
2022-11-04T19:26:53.030Z,8.10
2022-11-04T19:29:19.800Z,8.10
2022-11-04T19:31:46.428Z,8.00
2022-11-04T19:34:13.036Z,8.00
2022-11-04T19:36:39.651Z,8.00
2022-11-04T19:39:06.344Z,8.00
2022-11-04T19:41:51.296Z,8.00
2022-11-04T19:44:19.503Z,7.90
2022-11-04T19:46:46.776Z,7.90
2022-11-04T19:49:13.783Z,7.90
2022-11-04T19:51:40.830Z,7.90
2022-11-04T19:54:08.113Z,7.90
2022-11-04T19:56:37.433Z,7.90
2022-11-04T19:59:06.425Z,7.90
2022-11-04T20:01:34.755Z,7.90
2022-11-04T20:04:05.336Z,7.90
2022-11-04T20:06:34.166Z,7.90
2022-11-04T20:09:05.179Z,7.80
2022-11-04T20:11:33.260Z,7.80
2022-11-04T20:14:06.546Z,7.80
2022-11-04T20:16:39.121Z,7.70
2022-11-04T20:19:05.748Z,7.70
2022-11-04T20:21:35.621Z,7.80
2022-11-04T20:24:06.119Z,7.70
2022-11-04T20:26:34.512Z,7.70
2022-11-04T20:29:01.628Z,7.70
2022-11-04T20:31:30.960Z,7.70
2022-11-04T20:33:58.312Z,7.60
2022-11-04T20:36:27.250Z,7.70
2022-11-04T20:39:02.645Z,7.60
2022-11-04T20:41:29.327Z,7.70
2022-11-04T20:43:56.453Z,7.60
2022-11-04T20:46:28.985Z,7.50
2022-11-04T20:48:57.095Z,7.50
2022-11-04T20:51:28.511Z,7.50
2022-11-04T20:53:56.517Z,7.40
2022-11-04T20:56:25.153Z,7.40
2022-11-04T20:58:59.023Z,7.40
2022-11-04T21:01:30.476Z,7.40
2022-11-04T21:04:00.823Z,7.40
2022-11-04T21:06:28.434Z,7.30
2022-11-04T21:08:55.207Z,7.40
2022-11-04T21:11:22.027Z,7.40
2022-11-04T21:13:48.732Z,7.40
2022-11-04T21:16:19.097Z,7.30
2022-11-04T21:18:45.759Z,7.30
2022-11-04T21:21:15.670Z,7.30
2022-11-04T21:23:42.780Z,7.20
2022-11-04T21:26:13.841Z,7.20
2022-11-04T21:28:40.544Z,7.20
2022-11-04T21:31:09.655Z,7.10
2022-11-04T21:33:36.680Z,7.00
2022-11-04T21:36:08.856Z,7.00
2022-11-04T21:38:35.524Z,7.00
2022-11-04T21:41:04.292Z,6.90
2022-11-04T21:43:30.926Z,7.00
2022-11-04T21:46:05.716Z,6.90
2022-11-04T21:48:33.103Z,6.90
2022-11-04T21:51:04.184Z,6.80
2022-11-04T21:53:31.168Z,6.90
2022-11-04T21:56:08.370Z,6.80
2022-11-04T21:58:36.283Z,6.80
2022-11-04T22:01:05.053Z,6.90
2022-11-04T22:03:31.742Z,6.90
2022-11-04T22:05:59.283Z,6.90
2022-11-04T22:08:26.227Z,6.90
2022-11-04T22:10:53.110Z,6.90
2022-11-04T22:13:20.564Z,6.90
2022-11-04T22:15:59.247Z,6.90
2022-11-04T22:18:27.553Z,6.80
2022-11-04T22:20:54.424Z,6.90
2022-11-04T22:23:21.560Z,6.80
2022-11-04T22:25:50.280Z,6.80
2022-11-04T22:28:17.789Z,6.90
2022-11-04T22:30:44.596Z,6.90
2022-11-04T22:33:11.671Z,6.80
2022-11-04T22:35:38.502Z,6.80
2022-11-04T22:38:05.219Z,6.80
2022-11-04T22:40:31.823Z,6.80
2022-11-04T22:42:58.459Z,6.80
2022-11-04T22:45:25.054Z,6.70
2022-11-04T22:47:51.688Z,6.70
2022-11-04T22:50:18.566Z,6.70
2022-11-04T22:52:45.379Z,6.80
2022-11-04T22:55:13.647Z,6.70
2022-11-04T22:57:40.869Z,6.70
2022-11-04T23:00:09.419Z,6.70
2022-11-04T23:02:37.293Z,6.70
2022-11-04T23:05:04.483Z,6.70
2022-11-04T23:07:31.094Z,6.70
2022-11-04T23:10:16.495Z,6.70
2022-11-04T23:13:01.689Z,6.70
2022-11-04T23:15:47.148Z,6.70
2022-11-04T23:18:32.795Z,6.70
2022-11-04T23:21:18.607Z,6.60
2022-11-04T23:24:04.067Z,6.60
2022-11-04T23:26:30.801Z,6.60
2022-11-04T23:29:15.977Z,6.60
2022-11-04T23:31:42.667Z,6.60
2022-11-04T23:34:27.793Z,6.60
2022-11-04T23:37:12.621Z,6.60
2022-11-04T23:39:41.396Z,6.60
2022-11-04T23:42:18.537Z,6.60
2022-11-04T23:45:04.790Z,6.60
2022-11-04T23:47:51.775Z,6.60
2022-11-04T23:50:37.308Z,6.60
2022-11-04T23:53:23.154Z,6.60
2022-11-04T23:56:10.028Z,6.50
2022-11-04T23:58:55.484Z,6.50
